sensor_id;sensor_type;location;lat;lon;timestamp;P1;durP1;ratioP1;P2;durP2;ratioP2
45762;SDS011;37512;52.408;13.356;2023-02-28T00:00:21;6.35;;;3.20;;
45762;SDS011;37512;52.408;13.356;2023-02-28T00:04:23;6.05;;;3.53;;
45762;SDS011;37512;52.408;13.356;2023-02-28T00:08:25;5.93;;;3.40;;
45762;SDS011;37512;52.408;13.356;2023-02-28T00:12:26;6.45;;;3.05;;
45762;SDS011;37512;52.408;13.356;2023-02-28T00:16:28;9.02;;;3.58;;
45762;SDS011;37512;52.408;13.356;2023-02-28T00:20:30;11.27;;;4.03;;
45762;SDS011;37512;52.408;13.356;2023-02-28T00:24:31;7.55;;;3.67;;
45762;SDS011;37512;52.408;13.356;2023-02-28T00:28:33;7.57;;;3.50;;
45762;SDS011;37512;52.408;13.356;2023-02-28T00:32:34;5.40;;;3.30;;
45762;SDS011;37512;52.408;13.356;2023-02-28T00:36:36;6.45;;;3.65;;
45762;SDS011;37512;52.408;13.356;2023-02-28T00:40:37;10.20;;;4.15;;
45762;SDS011;37512;52.408;13.356;2023-02-28T00:44:39;6.35;;;3.53;;
45762;SDS011;37512;52.408;13.356;2023-02-28T00:48:40;9.10;;;3.25;;
45762;SDS011;37512;52.408;13.356;2023-02-28T00:52:42;4.47;;;3.42;;
45762;SDS011;37512;52.408;13.356;2023-02-28T00:56:43;7.82;;;3.63;;
45762;SDS011;37512;52.408;13.356;2023-02-28T01:00:47;6.30;;;3.88;;
45762;SDS011;37512;52.408;13.356;2023-02-28T01:04:51;8.02;;;3.85;;
45762;SDS011;37512;52.408;13.356;2023-02-28T01:08:52;6.80;;;3.95;;
45762;SDS011;37512;52.408;13.356;2023-02-28T01:12:54;6.25;;;3.55;;
45762;SDS011;37512;52.408;13.356;2023-02-28T01:16:55;6.13;;;4.57;;
45762;SDS011;37512;52.408;13.356;2023-02-28T01:20:57;7.03;;;3.58;;
45762;SDS011;37512;52.408;13.356;2023-02-28T01:24:59;8.23;;;4.40;;
45762;SDS011;37512;52.408;13.356;2023-02-28T01:29:00;6.35;;;3.80;;
45762;SDS011;37512;52.408;13.356;2023-02-28T01:33:01;4.72;;;3.13;;
45762;SDS011;37512;52.408;13.356;2023-02-28T01:37:03;5.82;;;3.88;;
45762;SDS011;37512;52.408;13.356;2023-02-28T01:41:05;10.38;;;4.47;;
45762;SDS011;37512;52.408;13.356;2023-02-28T01:49:29;7.95;;;4.03;;
45762;SDS011;37512;52.408;13.356;2023-02-28T01:53:34;7.20;;;4.05;;
45762;SDS011;37512;52.408;13.356;2023-02-28T01:57:42;6.53;;;3.88;;
45762;SDS011;37512;52.408;13.356;2023-02-28T02:01:48;5.70;;;3.85;;
45762;SDS011;37512;52.408;13.356;2023-02-28T02:05:50;7.63;;;3.45;;
45762;SDS011;37512;52.408;13.356;2023-02-28T02:10:01;5.95;;;3.20;;
45762;SDS011;37512;52.408;13.356;2023-02-28T02:19:03;9.75;;;3.67;;
45762;SDS011;37512;52.408;13.356;2023-02-28T02:45:52;6.90;;;3.67;;
45762;SDS011;37512;52.408;13.356;2023-02-28T02:49:58;8.52;;;3.90;;
45762;SDS011;37512;52.408;13.356;2023-02-28T02:54:06;7.88;;;4.38;;
45762;SDS011;37512;52.408;13.356;2023-02-28T02:58:16;6.47;;;4.03;;
45762;SDS011;37512;52.408;13.356;2023-02-28T03:02:19;7.07;;;3.80;;
45762;SDS011;37512;52.408;13.356;2023-02-28T03:06:23;10.55;;;4.07;;
45762;SDS011;37512;52.408;13.356;2023-02-28T03:10:29;7.65;;;4.25;;
45762;SDS011;37512;52.408;13.356;2023-02-28T03:27:36;8.80;;;4.22;;
45762;SDS011;37512;52.408;13.356;2023-02-28T03:31:39;5.78;;;3.95;;
45762;SDS011;37512;52.408;13.356;2023-02-28T03:35:49;8.50;;;4.45;;
45762;SDS011;37512;52.408;13.356;2023-02-28T03:39:56;8.02;;;4.47;;
45762;SDS011;37512;52.408;13.356;2023-02-28T03:44:05;8.18;;;3.75;;
45762;SDS011;37512;52.408;13.356;2023-02-28T03:48:23;8.57;;;4.53;;
45762;SDS011;37512;52.408;13.356;2023-02-28T03:52:34;7.03;;;4.30;;
45762;SDS011;37512;52.408;13.356;2023-02-28T03:56:45;6.38;;;4.25;;
45762;SDS011;37512;52.408;13.356;2023-02-28T04:01:03;8.93;;;4.50;;
45762;SDS011;37512;52.408;13.356;2023-02-28T04:05:09;9.85;;;4.63;;
45762;SDS011;37512;52.408;13.356;2023-02-28T04:09:13;6.00;;;4.45;;
45762;SDS011;37512;52.408;13.356;2023-02-28T04:13:15;9.05;;;4.90;;
45762;SDS011;37512;52.408;13.356;2023-02-28T04:17:17;6.80;;;4.60;;
45762;SDS011;37512;52.408;13.356;2023-02-28T04:21:19;7.78;;;5.03;;
45762;SDS011;37512;52.408;13.356;2023-02-28T04:25:25;8.40;;;4.65;;
45762;SDS011;37512;52.408;13.356;2023-02-28T04:29:28;8.27;;;5.05;;
45762;SDS011;37512;52.408;13.356;2023-02-28T04:33:31;6.63;;;4.65;;
45762;SDS011;37512;52.408;13.356;2023-02-28T04:37:33;9.23;;;4.70;;
45762;SDS011;37512;52.408;13.356;2023-02-28T04:41:36;8.93;;;5.40;;
45762;SDS011;37512;52.408;13.356;2023-02-28T04:45:37;9.77;;;5.47;;
45762;SDS011;37512;52.408;13.356;2023-02-28T04:49:39;9.50;;;5.70;;
45762;SDS011;37512;52.408;13.356;2023-02-28T04:53:42;10.13;;;5.57;;
45762;SDS011;37512;52.408;13.356;2023-02-28T04:57:44;8.25;;;4.95;;
45762;SDS011;37512;52.408;13.356;2023-02-28T05:01:46;11.27;;;5.75;;
45762;SDS011;37512;52.408;13.356;2023-02-28T05:05:49;9.25;;;5.97;;
45762;SDS011;37512;52.408;13.356;2023-02-28T05:09:50;7.50;;;5.20;;
45762;SDS011;37512;52.408;13.356;2023-02-28T05:13:52;8.27;;;5.15;;
45762;SDS011;37512;52.408;13.356;2023-02-28T05:17:55;11.75;;;5.07;;
45762;SDS011;37512;52.408;13.356;2023-02-28T05:21:57;9.00;;;4.95;;
45762;SDS011;37512;52.408;13.356;2023-02-28T05:25:59;6.68;;;4.50;;
45762;SDS011;37512;52.408;13.356;2023-02-28T05:30:00;8.43;;;5.45;;
45762;SDS011;37512;52.408;13.356;2023-02-28T05:34:04;8.05;;;5.38;;
45762;SDS011;37512;52.408;13.356;2023-02-28T05:38:06;7.32;;;5.25;;
45762;SDS011;37512;52.408;13.356;2023-02-28T05:42:08;9.52;;;5.03;;
45762;SDS011;37512;52.408;13.356;2023-02-28T05:46:10;13.10;;;5.50;;
45762;SDS011;37512;52.408;13.356;2023-02-28T05:50:12;9.10;;;4.45;;
45762;SDS011;37512;52.408;13.356;2023-02-28T05:54:14;17.27;;;5.75;;
45762;SDS011;37512;52.408;13.356;2023-02-28T05:58:16;8.38;;;5.28;;
45762;SDS011;37512;52.408;13.356;2023-02-28T06:02:17;15.23;;;6.40;;
45762;SDS011;37512;52.408;13.356;2023-02-28T06:06:19;8.80;;;5.20;;
45762;SDS011;37512;52.408;13.356;2023-02-28T06:10:20;8.65;;;5.15;;
45762;SDS011;37512;52.408;13.356;2023-02-28T06:14:22;13.38;;;4.72;;
45762;SDS011;37512;52.408;13.356;2023-02-28T06:18:23;11.68;;;6.50;;
45762;SDS011;37512;52.408;13.356;2023-02-28T06:22:25;8.25;;;5.68;;
45762;SDS011;37512;52.408;13.356;2023-02-28T06:26:26;11.60;;;5.53;;
45762;SDS011;37512;52.408;13.356;2023-02-28T06:30:28;9.73;;;5.75;;
45762;SDS011;37512;52.408;13.356;2023-02-28T06:34:31;11.10;;;5.43;;
45762;SDS011;37512;52.408;13.356;2023-02-28T06:38:34;11.23;;;6.60;;
45762;SDS011;37512;52.408;13.356;2023-02-28T06:42:37;8.82;;;6.00;;
45762;SDS011;37512;52.408;13.356;2023-02-28T06:46:39;14.35;;;6.57;;
45762;SDS011;37512;52.408;13.356;2023-02-28T06:50:41;12.23;;;6.25;;
45762;SDS011;37512;52.408;13.356;2023-02-28T06:54:44;14.07;;;6.75;;
45762;SDS011;37512;52.408;13.356;2023-02-28T06:58:46;13.00;;;6.25;;
45762;SDS011;37512;52.408;13.356;2023-02-28T07:02:50;17.08;;;6.25;;
45762;SDS011;37512;52.408;13.356;2023-02-28T07:06:52;11.40;;;4.95;;
45762;SDS011;37512;52.408;13.356;2023-02-28T07:10:56;9.77;;;5.55;;
45762;SDS011;37512;52.408;13.356;2023-02-28T07:14:57;12.90;;;6.70;;
45762;SDS011;37512;52.408;13.356;2023-02-28T07:18:59;7.85;;;4.90;;
45762;SDS011;37512;52.408;13.356;2023-02-28T07:23:00;9.77;;;6.43;;
45762;SDS011;37512;52.408;13.356;2023-02-28T07:27:02;11.32;;;5.82;;
45762;SDS011;37512;52.408;13.356;2023-02-28T07:31:04;8.38;;;5.00;;
45762;SDS011;37512;52.408;13.356;2023-02-28T07:35:07;10.90;;;5.03;;
45762;SDS011;37512;52.408;13.356;2023-02-28T07:39:09;12.13;;;5.38;;
45762;SDS011;37512;52.408;13.356;2023-02-28T07:43:11;9.68;;;5.60;;
45762;SDS011;37512;52.408;13.356;2023-02-28T07:47:12;8.95;;;5.30;;
45762;SDS011;37512;52.408;13.356;2023-02-28T07:51:14;9.40;;;5.15;;
45762;SDS011;37512;52.408;13.356;2023-02-28T07:55:15;9.60;;;4.90;;
45762;SDS011;37512;52.408;13.356;2023-02-28T07:59:17;6.18;;;3.60;;
45762;SDS011;37512;52.408;13.356;2023-02-28T08:03:19;8.13;;;3.80;;
45762;SDS011;37512;52.408;13.356;2023-02-28T08:07:22;4.63;;;3.42;;
45762;SDS011;37512;52.408;13.356;2023-02-28T08:11:23;7.15;;;4.15;;
45762;SDS011;37512;52.408;13.356;2023-02-28T08:15:25;5.22;;;3.10;;
45762;SDS011;37512;52.408;13.356;2023-02-28T08:19:26;5.70;;;3.60;;
45762;SDS011;37512;52.408;13.356;2023-02-28T08:23:28;5.93;;;2.30;;
45762;SDS011;37512;52.408;13.356;2023-02-28T08:27:30;4.70;;;2.63;;
45762;SDS011;37512;52.408;13.356;2023-02-28T08:31:31;6.13;;;3.40;;
45762;SDS011;37512;52.408;13.356;2023-02-28T08:35:34;3.97;;;2.28;;
45762;SDS011;37512;52.408;13.356;2023-02-28T08:39:37;4.88;;;2.60;;
45762;SDS011;37512;52.408;13.356;2023-02-28T08:43:39;5.10;;;2.97;;
45762;SDS011;37512;52.408;13.356;2023-02-28T08:47:41;9.07;;;3.60;;
45762;SDS011;37512;52.408;13.356;2023-02-28T08:51:42;5.55;;;3.20;;
45762;SDS011;37512;52.408;13.356;2023-02-28T08:55:44;7.47;;;3.75;;
45762;SDS011;37512;52.408;13.356;2023-02-28T08:59:46;4.88;;;3.53;;
45762;SDS011;37512;52.408;13.356;2023-02-28T09:03:48;7.45;;;3.58;;
45762;SDS011;37512;52.408;13.356;2023-02-28T09:07:50;6.88;;;2.90;;
45762;SDS011;37512;52.408;13.356;2023-02-28T09:11:54;4.22;;;2.00;;
45762;SDS011;37512;52.408;13.356;2023-02-28T09:15:57;7.07;;;2.20;;
45762;SDS011;37512;52.408;13.356;2023-02-28T09:20:00;4.00;;;2.38;;
45762;SDS011;37512;52.408;13.356;2023-02-28T09:24:01;4.68;;;2.70;;
45762;SDS011;37512;52.408;13.356;2023-02-28T09:28:03;11.00;;;5.82;;
45762;SDS011;37512;52.408;13.356;2023-02-28T09:32:05;2.95;;;1.90;;
45762;SDS011;37512;52.408;13.356;2023-02-28T09:36:09;9.95;;;3.10;;
45762;SDS011;37512;52.408;13.356;2023-02-28T09:40:11;3.50;;;2.15;;
45762;SDS011;37512;52.408;13.356;2023-02-28T09:44:16;5.38;;;2.03;;
45762;SDS011;37512;52.408;13.356;2023-02-28T09:48:28;4.30;;;1.95;;
45762;SDS011;37512;52.408;13.356;2023-02-28T09:52:38;2.72;;;1.83;;
45762;SDS011;37512;52.408;13.356;2023-02-28T09:56:40;3.20;;;2.13;;
45762;SDS011;37512;52.408;13.356;2023-02-28T10:00:43;2.47;;;1.60;;
45762;SDS011;37512;52.408;13.356;2023-02-28T10:09:07;4.47;;;2.60;;
45762;SDS011;37512;52.408;13.356;2023-02-28T10:17:37;2.63;;;1.83;;
45762;SDS011;37512;52.408;13.356;2023-02-28T10:22:03;3.83;;;2.17;;
45762;SDS011;37512;52.408;13.356;2023-02-28T10:26:12;5.32;;;1.98;;
45762;SDS011;37512;52.408;13.356;2023-02-28T10:30:17;6.13;;;2.08;;
45762;SDS011;37512;52.408;13.356;2023-02-28T10:34:18;3.10;;;1.90;;
45762;SDS011;37512;52.408;13.356;2023-02-28T10:38:32;2.50;;;1.60;;
45762;SDS011;37512;52.408;13.356;2023-02-28T10:42:38;4.22;;;1.90;;
45762;SDS011;37512;52.408;13.356;2023-02-28T10:46:40;3.17;;;1.73;;
45762;SDS011;37512;52.408;13.356;2023-02-28T10:54:47;3.42;;;2.00;;
45762;SDS011;37512;52.408;13.356;2023-02-28T11:03:00;4.00;;;2.20;;
45762;SDS011;37512;52.408;13.356;2023-02-28T11:07:03;3.33;;;1.88;;
45762;SDS011;37512;52.408;13.356;2023-02-28T11:11:28;4.50;;;2.30;;
45762;SDS011;37512;52.408;13.356;2023-02-28T11:15:33;4.93;;;2.10;;
45762;SDS011;37512;52.408;13.356;2023-02-28T11:19:38;2.38;;;1.52;;
45762;SDS011;37512;52.408;13.356;2023-02-28T11:23:45;3.20;;;2.00;;
45762;SDS011;37512;52.408;13.356;2023-02-28T11:27:49;3.50;;;2.13;;
45762;SDS011;37512;52.408;13.356;2023-02-28T11:36:21;5.50;;;2.00;;
45762;SDS011;37512;52.408;13.356;2023-02-28T11:40:36;3.80;;;2.22;;
45762;SDS011;37512;52.408;13.356;2023-02-28T11:44:51;4.85;;;1.70;;
45762;SDS011;37512;52.408;13.356;2023-02-28T11:57:56;3.72;;;2.15;;
45762;SDS011;37512;52.408;13.356;2023-02-28T12:02:20;4.87;;;1.80;;
45762;SDS011;37512;52.408;13.356;2023-02-28T12:06:30;3.67;;;2.20;;
45762;SDS011;37512;52.408;13.356;2023-02-28T12:19:32;3.63;;;2.00;;
45762;SDS011;37512;52.408;13.356;2023-02-28T12:28:01;4.85;;;2.25;;
45762;SDS011;37512;52.408;13.356;2023-02-28T12:32:15;4.60;;;2.63;;
45762;SDS011;37512;52.408;13.356;2023-02-28T12:36:19;4.25;;;2.70;;
45762;SDS011;37512;52.408;13.356;2023-02-28T12:40:41;3.78;;;2.17;;
45762;SDS011;37512;52.408;13.356;2023-02-28T12:44:49;4.85;;;2.40;;
45762;SDS011;37512;52.408;13.356;2023-02-28T12:48:55;4.95;;;2.72;;
45762;SDS011;37512;52.408;13.356;2023-02-28T13:06:20;3.35;;;2.28;;
45762;SDS011;37512;52.408;13.356;2023-02-28T13:10:44;4.73;;;2.33;;
45762;SDS011;37512;52.408;13.356;2023-02-28T13:14:47;3.80;;;2.42;;
45762;SDS011;37512;52.408;13.356;2023-02-28T13:18:51;4.55;;;2.67;;
45762;SDS011;37512;52.408;13.356;2023-02-28T13:22:54;3.20;;;2.40;;
45762;SDS011;37512;52.408;13.356;2023-02-28T13:31:03;3.38;;;2.30;;
45762;SDS011;37512;52.408;13.356;2023-02-28T13:48:19;5.53;;;2.63;;
45762;SDS011;37512;52.408;13.356;2023-02-28T13:52:25;5.30;;;2.58;;
45762;SDS011;37512;52.408;13.356;2023-02-28T13:56:35;4.18;;;2.67;;
45762;SDS011;37512;52.408;13.356;2023-02-28T14:05:06;4.05;;;2.35;;
45762;SDS011;37512;52.408;13.356;2023-02-28T14:09:28;5.15;;;2.58;;
45762;SDS011;37512;52.408;13.356;2023-02-28T14:17:51;6.82;;;3.13;;
45762;SDS011;37512;52.408;13.356;2023-02-28T14:34:55;4.35;;;2.70;;
45762;SDS011;37512;52.408;13.356;2023-02-28T14:39:07;4.13;;;2.28;;
45762;SDS011;37512;52.408;13.356;2023-02-28T14:43:20;3.40;;;2.20;;
45762;SDS011;37512;52.408;13.356;2023-02-28T14:47:28;4.28;;;2.80;;
45762;SDS011;37512;52.408;13.356;2023-02-28T14:51:32;6.25;;;3.13;;
45762;SDS011;37512;52.408;13.356;2023-02-28T14:55:34;7.57;;;3.25;;
45762;SDS011;37512;52.408;13.356;2023-02-28T14:59:36;3.17;;;2.33;;
45762;SDS011;37512;52.408;13.356;2023-02-28T15:03:39;5.38;;;3.35;;
45762;SDS011;37512;52.408;13.356;2023-02-28T15:07:40;6.88;;;2.80;;
45762;SDS011;37512;52.408;13.356;2023-02-28T15:11:44;7.80;;;2.60;;
45762;SDS011;37512;52.408;13.356;2023-02-28T15:15:55;6.22;;;2.53;;
45762;SDS011;37512;52.408;13.356;2023-02-28T15:20:04;4.10;;;2.20;;
45762;SDS011;37512;52.408;13.356;2023-02-28T15:28:25;5.53;;;2.85;;
45762;SDS011;37512;52.408;13.356;2023-02-28T15:32:34;7.60;;;3.22;;
45762;SDS011;37512;52.408;13.356;2023-02-28T15:36:37;5.05;;;2.58;;
45762;SDS011;37512;52.408;13.356;2023-02-28T15:40:41;5.10;;;2.55;;
45762;SDS011;37512;52.408;13.356;2023-02-28T15:44:44;5.22;;;2.90;;
45762;SDS011;37512;52.408;13.356;2023-02-28T15:48:51;3.40;;;2.58;;
45762;SDS011;37512;52.408;13.356;2023-02-28T15:52:55;5.97;;;2.95;;
45762;SDS011;37512;52.408;13.356;2023-02-28T15:56:58;5.13;;;2.95;;
45762;SDS011;37512;52.408;13.356;2023-02-28T16:01:17;6.50;;;3.08;;
45762;SDS011;37512;52.408;13.356;2023-02-28T16:05:28;4.78;;;3.20;;
45762;SDS011;37512;52.408;13.356;2023-02-28T16:09:32;5.60;;;3.10;;
45762;SDS011;37512;52.408;13.356;2023-02-28T16:13:35;6.57;;;3.92;;
45762;SDS011;37512;52.408;13.356;2023-02-28T16:17:38;7.68;;;3.97;;
45762;SDS011;37512;52.408;13.356;2023-02-28T16:21:40;7.47;;;3.72;;
45762;SDS011;37512;52.408;13.356;2023-02-28T16:25:42;5.45;;;3.10;;
45762;SDS011;37512;52.408;13.356;2023-02-28T16:29:45;9.90;;;3.50;;
45762;SDS011;37512;52.408;13.356;2023-02-28T16:33:48;4.38;;;3.00;;
45762;SDS011;37512;52.408;13.356;2023-02-28T16:37:50;6.22;;;3.13;;
45762;SDS011;37512;52.408;13.356;2023-02-28T16:41:52;6.38;;;3.20;;
45762;SDS011;37512;52.408;13.356;2023-02-28T16:45:57;7.10;;;3.78;;
45762;SDS011;37512;52.408;13.356;2023-02-28T16:50:01;5.78;;;2.95;;
45762;SDS011;37512;52.408;13.356;2023-02-28T16:54:06;11.77;;;3.28;;
45762;SDS011;37512;52.408;13.356;2023-02-28T16:58:10;6.88;;;3.35;;
45762;SDS011;37512;52.408;13.356;2023-02-28T17:02:15;6.85;;;3.65;;
45762;SDS011;37512;52.408;13.356;2023-02-28T17:06:22;7.75;;;3.33;;
45762;SDS011;37512;52.408;13.356;2023-02-28T17:10:28;4.15;;;2.92;;
45762;SDS011;37512;52.408;13.356;2023-02-28T17:14:30;8.90;;;3.20;;
45762;SDS011;37512;52.408;13.356;2023-02-28T17:18:32;5.50;;;3.15;;
45762;SDS011;37512;52.408;13.356;2023-02-28T17:22:35;8.20;;;2.88;;
45762;SDS011;37512;52.408;13.356;2023-02-28T17:26:37;4.55;;;2.60;;
45762;SDS011;37512;52.408;13.356;2023-02-28T17:30:43;6.60;;;3.63;;
45762;SDS011;37512;52.408;13.356;2023-02-28T17:34:48;8.45;;;3.80;;
45762;SDS011;37512;52.408;13.356;2023-02-28T17:38:49;7.07;;;3.33;;
45762;SDS011;37512;52.408;13.356;2023-02-28T17:42:51;10.57;;;3.20;;
45762;SDS011;37512;52.408;13.356;2023-02-28T17:46:54;9.00;;;3.42;;
45762;SDS011;37512;52.408;13.356;2023-02-28T17:50:56;6.60;;;3.58;;
45762;SDS011;37512;52.408;13.356;2023-02-28T17:54:57;6.75;;;3.70;;
45762;SDS011;37512;52.408;13.356;2023-02-28T17:58:59;6.90;;;3.67;;
45762;SDS011;37512;52.408;13.356;2023-02-28T18:03:00;6.97;;;3.58;;
45762;SDS011;37512;52.408;13.356;2023-02-28T18:07:02;7.78;;;4.22;;
45762;SDS011;37512;52.408;13.356;2023-02-28T18:11:04;5.55;;;3.95;;
45762;SDS011;37512;52.408;13.356;2023-02-28T18:15:05;7.95;;;4.10;;
45762;SDS011;37512;52.408;13.356;2023-02-28T18:19:07;8.32;;;4.63;;
45762;SDS011;37512;52.408;13.356;2023-02-28T18:23:15;11.13;;;4.35;;
45762;SDS011;37512;52.408;13.356;2023-02-28T18:27:18;8.93;;;4.25;;
45762;SDS011;37512;52.408;13.356;2023-02-28T18:31:22;9.73;;;4.88;;
45762;SDS011;37512;52.408;13.356;2023-02-28T18:35:27;7.15;;;4.47;;
45762;SDS011;37512;52.408;13.356;2023-02-28T18:39:35;8.02;;;4.28;;
45762;SDS011;37512;52.408;13.356;2023-02-28T18:43:37;11.40;;;5.60;;
45762;SDS011;37512;52.408;13.356;2023-02-28T18:47:39;9.35;;;5.70;;
45762;SDS011;37512;52.408;13.356;2023-02-28T18:51:41;13.82;;;5.72;;
45762;SDS011;37512;52.408;13.356;2023-02-28T18:55:46;12.32;;;5.93;;
45762;SDS011;37512;52.408;13.356;2023-02-28T18:59:48;13.75;;;6.15;;
45762;SDS011;37512;52.408;13.356;2023-02-28T19:03:49;7.95;;;5.35;;
45762;SDS011;37512;52.408;13.356;2023-02-28T19:07:51;12.70;;;7.05;;
45762;SDS011;37512;52.408;13.356;2023-02-28T19:11:53;15.98;;;6.30;;
45762;SDS011;37512;52.408;13.356;2023-02-28T19:16:01;15.93;;;6.93;;
45762;SDS011;37512;52.408;13.356;2023-02-28T19:20:04;14.02;;;7.05;;
45762;SDS011;37512;52.408;13.356;2023-02-28T19:24:06;17.73;;;8.20;;
45762;SDS011;37512;52.408;13.356;2023-02-28T19:28:08;16.83;;;8.95;;
45762;SDS011;37512;52.408;13.356;2023-02-28T19:32:10;14.25;;;7.53;;
45762;SDS011;37512;52.408;13.356;2023-02-28T19:36:11;19.00;;;7.97;;
45762;SDS011;37512;52.408;13.356;2023-02-28T19:40:14;15.18;;;7.88;;
45762;SDS011;37512;52.408;13.356;2023-02-28T19:44:15;12.52;;;7.45;;
45762;SDS011;37512;52.408;13.356;2023-02-28T19:48:17;15.23;;;7.90;;
45762;SDS011;37512;52.408;13.356;2023-02-28T19:52:22;15.20;;;8.63;;
45762;SDS011;37512;52.408;13.356;2023-02-28T19:56:25;16.33;;;7.75;;
45762;SDS011;37512;52.408;13.356;2023-02-28T20:00:26;11.75;;;7.20;;
45762;SDS011;37512;52.408;13.356;2023-02-28T20:04:28;16.67;;;8.30;;
45762;SDS011;37512;52.408;13.356;2023-02-28T20:08:29;13.45;;;7.80;;
45762;SDS011;37512;52.408;13.356;2023-02-28T20:12:31;23.02;;;7.90;;
45762;SDS011;37512;52.408;13.356;2023-02-28T20:16:32;13.40;;;6.82;;
45762;SDS011;37512;52.408;13.356;2023-02-28T20:20:34;13.13;;;7.93;;
45762;SDS011;37512;52.408;13.356;2023-02-28T20:24:37;16.27;;;7.85;;
45762;SDS011;37512;52.408;13.356;2023-02-28T20:28:39;16.60;;;8.43;;
45762;SDS011;37512;52.408;13.356;2023-02-28T20:32:41;12.63;;;7.63;;
45762;SDS011;37512;52.408;13.356;2023-02-28T20:36:43;11.40;;;6.50;;
45762;SDS011;37512;52.408;13.356;2023-02-28T20:40:44;16.67;;;8.02;;
45762;SDS011;37512;52.408;13.356;2023-02-28T20:44:46;11.95;;;7.65;;
45762;SDS011;37512;52.408;13.356;2023-02-28T20:48:47;18.15;;;8.50;;
45762;SDS011;37512;52.408;13.356;2023-02-28T20:52:49;13.73;;;8.23;;
45762;SDS011;37512;52.408;13.356;2023-02-28T20:56:51;14.40;;;7.75;;
45762;SDS011;37512;52.408;13.356;2023-02-28T21:01:02;14.82;;;8.15;;
45762;SDS011;37512;52.408;13.356;2023-02-28T21:05:17;16.98;;;7.15;;
45762;SDS011;37512;52.408;13.356;2023-02-28T21:09:18;13.60;;;8.10;;
45762;SDS011;37512;52.408;13.356;2023-02-28T21:13:20;16.63;;;7.55;;
45762;SDS011;37512;52.408;13.356;2023-02-28T21:17:21;14.73;;;8.25;;
45762;SDS011;37512;52.408;13.356;2023-02-28T21:21:23;12.95;;;7.68;;
45762;SDS011;37512;52.408;13.356;2023-02-28T21:25:25;16.02;;;7.93;;
45762;SDS011;37512;52.408;13.356;2023-02-28T21:29:26;15.18;;;7.68;;
45762;SDS011;37512;52.408;13.356;2023-02-28T21:33:28;13.70;;;7.72;;
45762;SDS011;37512;52.408;13.356;2023-02-28T21:37:30;14.63;;;8.20;;
45762;SDS011;37512;52.408;13.356;2023-02-28T21:41:32;17.33;;;8.93;;
45762;SDS011;37512;52.408;13.356;2023-02-28T21:45:33;18.05;;;9.38;;
45762;SDS011;37512;52.408;13.356;2023-02-28T21:49:35;14.18;;;7.80;;
45762;SDS011;37512;52.408;13.356;2023-02-28T21:53:39;15.23;;;8.88;;
45762;SDS011;37512;52.408;13.356;2023-02-28T21:57:41;12.10;;;7.25;;
45762;SDS011;37512;52.408;13.356;2023-02-28T22:01:44;16.83;;;8.38;;
45762;SDS011;37512;52.408;13.356;2023-02-28T22:05:46;11.88;;;8.38;;
45762;SDS011;37512;52.408;13.356;2023-02-28T22:09:48;19.40;;;8.82;;
45762;SDS011;37512;52.408;13.356;2023-02-28T22:13:50;14.88;;;9.05;;
45762;SDS011;37512;52.408;13.356;2023-02-28T22:17:56;11.25;;;7.78;;
45762;SDS011;37512;52.408;13.356;2023-02-28T22:21:58;19.80;;;9.93;;
45762;SDS011;37512;52.408;13.356;2023-02-28T22:26:00;16.05;;;8.35;;
45762;SDS011;37512;52.408;13.356;2023-02-28T22:30:04;16.13;;;9.00;;
45762;SDS011;37512;52.408;13.356;2023-02-28T22:34:07;15.95;;;8.85;;
45762;SDS011;37512;52.408;13.356;2023-02-28T22:38:11;19.27;;;9.00;;
45762;SDS011;37512;52.408;13.356;2023-02-28T22:42:13;18.38;;;9.77;;
45762;SDS011;37512;52.408;13.356;2023-02-28T22:46:14;16.83;;;9.65;;
45762;SDS011;37512;52.408;13.356;2023-02-28T22:50:16;16.63;;;10.10;;
45762;SDS011;37512;52.408;13.356;2023-02-28T22:54:18;16.38;;;10.57;;
45762;SDS011;37512;52.408;13.356;2023-02-28T22:58:19;18.95;;;10.65;;
45762;SDS011;37512;52.408;13.356;2023-02-28T23:02:21;21.30;;;10.95;;
45762;SDS011;37512;52.408;13.356;2023-02-28T23:06:23;25.65;;;13.00;;
45762;SDS011;37512;52.408;13.356;2023-02-28T23:10:27;26.27;;;10.85;;
45762;SDS011;37512;52.408;13.356;2023-02-28T23:14:28;22.58;;;11.63;;
45762;SDS011;37512;52.408;13.356;2023-02-28T23:18:30;24.02;;;10.75;;
45762;SDS011;37512;52.408;13.356;2023-02-28T23:22:31;18.13;;;11.50;;
45762;SDS011;37512;52.408;13.356;2023-02-28T23:26:33;18.40;;;9.80;;
45762;SDS011;37512;52.408;13.356;2023-02-28T23:30:37;19.25;;;10.52;;
45762;SDS011;37512;52.408;13.356;2023-02-28T23:34:39;20.50;;;10.43;;
45762;SDS011;37512;52.408;13.356;2023-02-28T23:38:41;14.93;;;9.57;;
45762;SDS011;37512;52.408;13.356;2023-02-28T23:42:45;15.38;;;9.50;;
45762;SDS011;37512;52.408;13.356;2023-02-28T23:46:50;17.30;;;9.90;;
45762;SDS011;37512;52.408;13.356;2023-02-28T23:50:52;18.95;;;10.27;;
45762;SDS011;37512;52.408;13.356;2023-02-28T23:54:58;21.38;;;10.50;;
45762;SDS011;37512;52.408;13.356;2023-02-28T23:59:00;17.67;;;9.02;;
